Time;durP1;ratioP1;P1;durP2;ratioP2;P2;SDS_P1;SDS_P2;PMS_P1;PMS_P2;Temp;Humidity;BMP_temperature;BMP_pressure;BME280_temperature;BME280_humidity;BME280_pressure;Samples;Min_cycle;Max_cycle;Signal;HPM_P1;HPM_P2
2021/07/31 00:00:13;;;;;;;7.72;4.90;;;15.50;99.90;;;;;;4839858;29;20030;-71
2021/07/31 00:02:39;;;;;;;6.60;4.82;;;15.50;99.90;;;;;;4841241;29;20033;-71
2021/07/31 00:05:05;;;;;;;12.75;5.40;;;15.60;99.90;;;;;;4840971;29;20109;-71
2021/07/31 00:07:31;;;;;;;6.60;4.80;;;15.60;99.90;;;;;;4841188;29;20041;-71
2021/07/31 00:09:57;;;;;;;8.48;5.10;;;15.60;99.90;;;;;;4840919;29;20026;-71
2021/07/31 00:12:23;;;;;;;8.57;5.00;;;15.50;99.90;;;;;;4841162;29;20030;-71
2021/07/31 00:14:48;;;;;;;9.43;5.90;;;15.50;99.90;;;;;;4841096;29;20022;-71
2021/07/31 00:17:14;;;;;;;7.55;5.00;;;15.50;99.90;;;;;;4841152;29;20483;-71
2021/07/31 00:19:40;;;;;;;7.95;4.85;;;15.50;99.90;;;;;;4841029;29;20030;-71
2021/07/31 00:22:05;;;;;;;8.27;5.35;;;15.50;99.90;;;;;;4843634;29;20451;-71
2021/07/31 00:24:31;;;;;;;6.85;5.38;;;15.50;99.90;;;;;;4844940;29;20034;-71
2021/07/31 00:26:57;;;;;;;7.32;5.07;;;15.50;99.90;;;;;;4844810;29;20045;-71
2021/07/31 00:29:23;;;;;;;7.53;5.28;;;15.50;99.90;;;;;;4845109;29;20026;-71
2021/07/31 00:31:49;;;;;;;6.85;5.32;;;15.50;99.90;;;;;;4844494;29;20479;-71
2021/07/31 00:34:15;;;;;;;7.35;4.68;;;15.40;99.90;;;;;;4844449;29;20034;-71
2021/07/31 00:36:40;;;;;;;7.82;5.43;;;15.50;99.90;;;;;;4844513;29;20114;-71
2021/07/31 00:39:07;;;;;;;9.15;4.82;;;15.50;99.90;;;;;;4844522;29;20117;-71
2021/07/31 00:41:32;;;;;;;7.72;4.97;;;15.50;99.90;;;;;;4844397;29;20037;-71
2021/07/31 00:43:58;;;;;;;8.90;5.65;;;15.50;99.90;;;;;;4844236;29;20034;-71
2021/07/31 00:46:25;;;;;;;12.43;5.55;;;15.50;99.90;;;;;;4844337;29;20034;-71
2021/07/31 00:48:51;;;;;;;8.27;5.82;;;15.50;99.90;;;;;;4843964;29;20053;-71
2021/07/31 00:51:18;;;;;;;8.25;5.40;;;15.50;99.90;;;;;;4844266;29;20539;-71
2021/07/31 00:53:45;;;;;;;6.65;4.60;;;15.50;99.90;;;;;;4844526;29;20363;-71
2021/07/31 00:56:12;;;;;;;8.57;5.40;;;15.50;99.90;;;;;;4844132;29;20502;-71
2021/07/31 00:58:38;;;;;;;7.28;5.28;;;15.60;99.90;;;;;;4844686;29;20037;-71
2021/07/31 01:01:04;;;;;;;7.32;5.15;;;15.50;99.90;;;;;;4844034;29;20034;-71
2021/07/31 01:03:30;;;;;;;9.68;5.35;;;15.50;99.90;;;;;;4844054;29;20030;-71
2021/07/31 01:05:56;;;;;;;9.27;5.07;;;15.50;99.90;;;;;;4844102;29;20034;-71
2021/07/31 01:08:22;;;;;;;8.43;5.85;;;15.50;99.90;;;;;;4844139;29;20592;-71
2021/07/31 01:10:48;;;;;;;8.50;5.60;;;15.50;99.90;;;;;;4843807;29;20118;-71
2021/07/31 01:13:14;;;;;;;9.52;5.15;;;15.50;99.90;;;;;;4843849;29;20025;-71
2021/07/31 01:15:56;;;;;;;7.13;5.10;;;15.50;99.90;;;;;;4843784;29;20037;-71
2021/07/31 01:47:26;;;;;;;11.85;5.10;;;15.40;99.90;;;;;;4843160;29;20408;-71
2021/07/31 01:49:52;;;;;;;7.57;5.18;;;15.40;99.90;;;;;;4843003;29;20058;-71
2021/07/31 01:52:17;;;;;;;8.75;4.90;;;15.40;99.90;;;;;;4843515;29;20040;-71
2021/07/31 01:54:43;;;;;;;7.57;5.15;;;15.40;99.90;;;;;;4843129;29;20543;-71
2021/07/31 01:57:09;;;;;;;9.70;5.78;;;15.40;99.90;;;;;;4843394;29;20045;-71
2021/07/31 01:59:34;;;;;;;9.85;6.22;;;15.40;99.90;;;;;;4843056;29;20025;-71
2021/07/31 02:02:00;;;;;;;6.88;4.82;;;15.40;99.90;;;;;;4843026;29;20030;-71
2021/07/31 02:04:26;;;;;;;8.68;5.57;;;15.40;99.90;;;;;;4843017;29;20030;-71
2021/07/31 02:06:52;;;;;;;7.07;4.88;;;15.40;99.90;;;;;;4842901;29;20079;-71
2021/07/31 02:09:17;;;;;;;8.23;4.93;;;15.40;99.90;;;;;;4843183;29;20029;-71
2021/07/31 02:11:43;;;;;;;12.10;5.60;;;15.40;99.90;;;;;;4843143;29;20034;-71
2021/07/31 02:14:09;;;;;;;10.65;5.60;;;15.40;99.90;;;;;;4842605;29;20478;-71
2021/07/31 02:16:35;;;;;;;8.60;5.38;;;15.40;99.90;;;;;;4842789;29;20121;-71
2021/07/31 02:19:00;;;;;;;8.75;5.40;;;15.40;99.90;;;;;;4842603;29;20101;-71
2021/07/31 02:21:26;;;;;;;8.60;5.40;;;15.40;99.90;;;;;;4841524;29;20038;-71
2021/07/31 02:23:52;;;;;;;8.10;5.03;;;15.40;99.90;;;;;;4842816;29;20056;-71
2021/07/31 02:26:18;;;;;;;7.22;4.97;;;15.40;99.90;;;;;;4842588;29;20045;-71
2021/07/31 02:28:43;;;;;;;8.77;5.50;;;15.40;99.90;;;;;;4842578;29;20109;-71
2021/07/31 02:31:11;;;;;;;8.65;5.47;;;15.40;99.90;;;;;;4842518;29;20110;-71
2021/07/31 02:33:38;;;;;;;8.32;5.00;;;15.40;99.90;;;;;;4843100;29;20364;-71
2021/07/31 02:36:05;;;;;;;6.80;4.95;;;15.40;99.90;;;;;;4842265;29;20490;-71
2021/07/31 02:38:31;;;;;;;10.77;4.78;;;15.40;99.90;;;;;;4842434;29;20034;-71
2021/07/31 02:40:56;;;;;;;9.70;5.18;;;15.40;99.90;;;;;;4842060;29;20029;-71
2021/07/31 02:43:22;;;;;;;10.85;5.05;;;15.40;99.90;;;;;;4842650;29;20042;-71
2021/07/31 02:45:48;;;;;;;9.55;5.55;;;15.40;99.90;;;;;;4841255;29;20034;-71
2021/07/31 02:48:13;;;;;;;7.60;5.10;;;15.50;99.90;;;;;;4842174;29;20351;-71
2021/07/31 02:50:39;;;;;;;7.50;4.90;;;15.50;99.90;;;;;;4842407;29;20037;-71
2021/07/31 02:53:05;;;;;;;8.15;4.90;;;15.50;99.90;;;;;;4842005;29;20443;-71
2021/07/31 02:55:31;;;;;;;10.18;5.32;;;15.50;99.90;;;;;;4842281;29;20026;-71
2021/07/31 02:57:57;;;;;;;6.82;4.68;;;15.50;99.90;;;;;;4842197;29;20033;-71
2021/07/31 03:00:23;;;;;;;9.45;5.55;;;15.50;99.90;;;;;;4841990;29;20030;-71
2021/07/31 03:02:49;;;;;;;9.00;4.90;;;15.50;99.90;;;;;;4842110;29;20037;-71
2021/07/31 03:05:15;;;;;;;8.32;4.75;;;15.50;99.90;;;;;;4841775;29;20513;-71
2021/07/31 03:07:40;;;;;;;11.57;5.20;;;15.50;99.90;;;;;;4842166;29;20041;-71
2021/07/31 03:10:07;;;;;;;8.15;5.13;;;15.60;99.90;;;;;;4841622;29;20501;-71
2021/07/31 03:12:33;;;;;;;8.43;4.97;;;15.50;99.90;;;;;;4841841;29;20079;-71
2021/07/31 03:14:59;;;;;;;6.45;4.78;;;15.60;99.90;;;;;;4841837;29;20054;-71
2021/07/31 03:17:26;;;;;;;10.95;5.25;;;15.60;99.90;;;;;;4841786;29;20394;-71
2021/07/31 03:19:52;;;;;;;6.78;4.65;;;15.60;99.90;;;;;;4841880;29;20030;-71
2021/07/31 03:22:18;;;;;;;10.77;4.90;;;15.60;99.90;;;;;;4841873;29;20057;-72
2021/07/31 03:24:44;;;;;;;10.20;5.63;;;15.60;99.90;;;;;;4841756;29;20474;-71
2021/07/31 03:27:10;;;;;;;8.38;5.30;;;15.70;99.90;;;;;;4841462;29;20130;-71
2021/07/31 03:29:36;;;;;;;15.70;5.75;;;15.70;99.90;;;;;;4841631;29;20025;-71
2021/07/31 03:32:02;;;;;;;8.98;5.45;;;15.70;99.90;;;;;;4841388;29;20387;-71
2021/07/31 03:34:28;;;;;;;8.48;5.57;;;15.70;99.90;;;;;;4841479;29;20117;-71
2021/07/31 03:36:54;;;;;;;10.32;4.78;;;15.70;99.90;;;;;;4841740;29;20479;-71
2021/07/31 03:39:25;;;;;;;13.32;5.05;;;15.70;99.90;;;;;;4841206;29;20153;-71
2021/07/31 03:41:50;;;;;;;;;;;15.70;99.90;;;;;;4842173;29;20038;-71
2021/07/31 03:44:17;;;;;;;10.73;5.70;;;15.70;99.90;;;;;;4841472;29;20371;-71
2021/07/31 03:46:44;;;;;;;9.13;5.18;;;15.70;99.90;;;;;;4841576;29;20050;-71
2021/07/31 03:49:09;;;;;;;9.85;5.15;;;15.70;99.90;;;;;;4841299;29;20391;-71
2021/07/31 03:51:35;;;;;;;11.98;5.40;;;15.70;99.90;;;;;;4841585;29;20038;-71
2021/07/31 03:54:01;;;;;;;10.10;6.10;;;15.70;99.90;;;;;;4841434;29;20053;-71
2021/07/31 03:56:26;;;;;;;13.13;6.28;;;15.70;99.90;;;;;;4841069;29;20033;-71
2021/07/31 03:58:53;;;;;;;10.75;5.90;;;15.80;99.90;;;;;;4841443;29;20037;-71
2021/07/31 04:01:23;;;;;;;10.20;5.53;;;15.70;99.90;;;;;;4841019;29;20028;-71
2021/07/31 04:03:49;;;;;;;9.98;5.57;;;15.80;99.90;;;;;;4841197;29;20030;-71
2021/07/31 04:06:15;;;;;;;14.85;6.50;;;15.70;99.90;;;;;;4840948;29;20124;-71
2021/07/31 04:08:41;;;;;;;10.80;5.55;;;15.80;99.90;;;;;;4841417;29;20155;-71
2021/07/31 04:11:07;;;;;;;12.98;6.10;;;15.80;99.90;;;;;;4840922;29;20030;-71
2021/07/31 04:13:32;;;;;;;11.88;6.05;;;15.70;99.90;;;;;;4841068;29;20396;-71
2021/07/31 04:15:58;;;;;;;12.63;6.28;;;15.70;99.90;;;;;;4840992;29;20042;-71
2021/07/31 04:18:24;;;;;;;10.13;5.93;;;15.70;99.90;;;;;;4841012;29;20038;-71
2021/07/31 04:20:50;;;;;;;12.20;5.68;;;15.80;99.90;;;;;;4841255;29;20030;-71
2021/07/31 04:23:17;;;;;;;13.27;5.78;;;15.70;99.90;;;;;;4840850;29;20029;-71
2021/07/31 04:25:42;;;;;;;13.00;5.72;;;15.80;99.90;;;;;;4841049;29;20045;-71
2021/07/31 04:28:08;;;;;;;12.48;5.63;;;15.80;99.90;;;;;;4840956;29;20034;-71
2021/07/31 04:30:34;;;;;;;10.43;5.63;;;15.90;99.90;;;;;;4840917;29;20062;-71
2021/07/31 04:33:00;;;;;;;13.07;6.90;;;15.90;99.90;;;;;;4840887;29;20095;-72
2021/07/31 04:35:26;;;;;;;15.15;5.72;;;16.00;99.90;;;;;;4841147;29;20026;-71
2021/07/31 04:37:52;;;;;;;13.10;5.82;;;16.00;99.90;;;;;;4841210;29;20091;-71
2021/07/31 04:40:17;;;;;;;12.23;6.18;;;16.00;99.90;;;;;;4840946;29;20026;-71
2021/07/31 04:42:43;;;;;;;10.55;5.80;;;16.00;99.90;;;;;;4840857;29;20026;-71
2021/07/31 04:45:09;;;;;;;8.73;5.60;;;16.10;99.90;;;;;;4840918;29;20034;-71
2021/07/31 04:47:39;;;;;;;10.35;5.57;;;16.00;99.90;;;;;;4841291;29;20038;-71
2021/07/31 04:50:06;;;;;;;9.88;5.70;;;16.10;99.90;;;;;;4840917;29;20041;-71
2021/07/31 04:52:33;;;;;;;10.82;5.85;;;16.10;99.90;;;;;;4841105;29;20110;-71
2021/07/31 04:54:59;;;;;;;11.38;6.18;;;16.10;99.90;;;;;;4841065;29;20026;-71
2021/07/31 04:57:24;;;;;;;12.43;6.18;;;16.20;99.90;;;;;;4840641;29;20368;-71
2021/07/31 04:59:50;;;;;;;9.70;5.70;;;16.20;99.90;;;;;;4840935;29;20081;-71
2021/07/31 05:02:16;;;;;;;11.68;5.68;;;16.20;99.90;;;;;;4840886;29;20026;-71
2021/07/31 05:04:41;;;;;;;8.25;4.47;;;16.20;99.90;;;;;;4840595;29;20072;-71
2021/07/31 05:07:10;;;;;;;9.98;5.53;;;16.10;99.90;;;;;;4840612;29;20053;-71
2021/07/31 05:09:35;;;;;;;9.70;5.78;;;16.20;99.90;;;;;;4843721;29;20022;-71
2021/07/31 05:12:01;;;;;;;11.30;4.72;;;16.20;99.90;;;;;;4843962;29;20545;-71
2021/07/31 05:14:27;;;;;;;11.30;6.20;;;16.20;99.90;;;;;;4843931;29;20041;-71
2021/07/31 05:16:53;;;;;;;12.05;5.45;;;16.30;99.90;;;;;;4843933;29;20029;-71
2021/07/31 05:19:19;;;;;;;10.90;5.65;;;16.30;99.90;;;;;;4843988;29;20486;-71
2021/07/31 05:21:45;;;;;;;10.35;5.07;;;16.30;99.90;;;;;;4843856;29;20041;-71
2021/07/31 05:24:11;;;;;;;8.77;5.28;;;16.30;99.90;;;;;;4843504;29;20030;-71
2021/07/31 05:26:40;;;;;;;10.38;5.47;;;16.30;99.90;;;;;;4843845;29;20075;-71
2021/07/31 05:29:07;;;;;;;10.53;5.83;;;16.30;99.90;;;;;;4843567;29;20428;-71
2021/07/31 05:31:33;;;;;;;10.35;5.82;;;16.30;99.90;;;;;;4843618;29;20403;-71
2021/07/31 05:33:59;;;;;;;10.32;5.97;;;16.30;99.90;;;;;;4843847;29;20032;-71
2021/07/31 05:36:26;;;;;;;9.82;5.47;;;16.30;99.90;;;;;;4843652;29;20034;-71
2021/07/31 05:38:52;;;;;;;8.40;5.40;;;16.30;99.90;;;;;;4843537;29;20030;-71
2021/07/31 05:41:19;;;;;;;11.43;6.18;;;16.30;99.90;;;;;;4843550;29;20030;-71
2021/07/31 05:43:45;;;;;;;13.48;6.65;;;16.30;99.90;;;;;;4843536;29;20483;-71
2021/07/31 05:46:16;;;;;;;9.43;5.55;;;16.30;99.90;;;;;;4843328;29;20166;-71
2021/07/31 05:48:42;;;;;;;8.70;5.38;;;16.30;99.90;;;;;;4843287;29;20511;-71
2021/07/31 05:51:11;;;;;;;8.95;5.40;;;16.40;99.90;;;;;;4843098;29;20054;-71
2021/07/31 05:53:37;;;;;;;8.27;5.70;;;16.40;99.90;;;;;;4843346;29;20036;-71
2021/07/31 05:56:05;;;;;;;11.90;6.03;;;16.40;99.90;;;;;;4843388;29;20030;-71
2021/07/31 05:58:31;;;;;;;10.18;5.82;;;16.40;99.90;;;;;;4843225;29;20036;-71
2021/07/31 06:00:57;;;;;;;10.45;5.63;;;16.50;99.90;;;;;;4843056;29;20125;-71
2021/07/31 06:03:23;;;;;;;9.98;6.05;;;16.50;99.90;;;;;;4843004;29;20030;-71
2021/07/31 06:05:48;;;;;;;9.90;5.38;;;16.50;99.90;;;;;;4843188;29;20089;-71
2021/07/31 06:08:14;;;;;;;8.27;5.18;;;16.60;99.90;;;;;;4842957;29;20037;-71
2021/07/31 06:10:40;;;;;;;7.55;5.03;;;16.60;99.90;;;;;;4843133;29;20109;-71
2021/07/31 06:13:05;;;;;;;7.43;5.07;;;16.60;99.90;;;;;;4842784;29;20053;-71
2021/07/31 06:15:31;;;;;;;8.18;5.25;;;16.60;99.90;;;;;;4842858;29;20045;-71
2021/07/31 06:17:57;;;;;;;9.50;5.53;;;16.60;99.90;;;;;;4842833;29;20040;-71
2021/07/31 06:20:22;;;;;;;9.18;5.38;;;16.60;99.90;;;;;;4842433;29;20026;-71
2021/07/31 06:22:48;;;;;;;8.10;5.43;;;16.60;99.90;;;;;;4843083;29;20550;-71
2021/07/31 06:25:14;;;;;;;7.70;5.25;;;16.70;99.90;;;;;;4842664;29;20037;-71
2021/07/31 06:27:39;;;;;;;7.68;4.78;;;16.70;99.90;;;;;;4843021;29;20042;-71
2021/07/31 06:30:06;;;;;;;9.90;5.47;;;16.70;99.90;;;;;;4842520;29;20402;-71
2021/07/31 06:32:32;;;;;;;7.20;5.35;;;16.80;99.90;;;;;;4842738;29;20054;-71
2021/07/31 06:34:57;;;;;;;10.88;5.70;;;16.80;99.90;;;;;;4842432;29;20505;-71
2021/07/31 06:37:23;;;;;;;7.40;4.95;;;16.90;99.90;;;;;;4842604;29;20022;-71
2021/07/31 06:39:49;;;;;;;7.68;5.00;;;17.00;99.90;;;;;;4842402;29;20033;-71
2021/07/31 06:42:14;;;;;;;9.13;5.78;;;17.10;99.90;;;;;;4842310;29;20033;-71
2021/07/31 06:44:40;;;;;;;6.90;4.70;;;17.10;99.90;;;;;;4842340;29;20508;-71
2021/07/31 06:47:06;;;;;;;6.90;4.78;;;17.10;99.90;;;;;;4842218;29;20128;-71
2021/07/31 06:49:31;;;;;;;8.18;4.90;;;17.10;99.90;;;;;;4842109;29;20056;-71
2021/07/31 06:51:57;;;;;;;7.75;5.25;;;17.10;99.90;;;;;;4842455;29;20030;-71
2021/07/31 06:54:23;;;;;;;6.72;4.88;;;17.10;99.90;;;;;;4841965;29;20391;-71
2021/07/31 06:56:49;;;;;;;7.22;4.90;;;17.20;99.90;;;;;;4842043;29;20037;-71
2021/07/31 06:59:15;;;;;;;7.00;4.60;;;17.30;99.90;;;;;;4841846;29;20022;-71
2021/07/31 07:01:41;;;;;;;8.52;4.57;;;17.40;99.90;;;;;;4842026;29;20044;-71
2021/07/31 07:04:06;;;;;;;5.97;4.43;;;17.50;99.90;;;;;;4842097;29;20022;-71
2021/07/31 07:06:32;;;;;;;7.22;4.05;;;17.60;99.90;;;;;;4841825;29;20034;-71
2021/07/31 07:08:58;;;;;;;5.82;3.60;;;17.70;99.90;;;;;;4841912;29;20058;-71
2021/07/31 07:11:23;;;;;;;6.30;3.67;;;17.70;99.90;;;;;;4841945;29;20030;-71
2021/07/31 07:13:49;;;;;;;4.95;3.72;;;17.70;99.90;;;;;;4842108;29;20036;-71
2021/07/31 07:16:15;;;;;;;5.30;3.50;;;17.70;99.90;;;;;;4841633;29;20022;-71
2021/07/31 07:18:41;;;;;;;4.97;3.47;;;17.80;99.90;;;;;;4842121;29;20033;-71
2021/07/31 07:21:08;;;;;;;5.80;3.72;;;17.80;99.90;;;;;;4841699;29;20021;-71
2021/07/31 07:23:34;;;;;;;4.03;3.35;;;17.80;99.90;;;;;;4841881;29;20040;-71
2021/07/31 07:26:00;;;;;;;4.55;2.95;;;17.80;99.90;;;;;;4841811;29;20065;-72
2021/07/31 07:28:26;;;;;;;5.03;3.22;;;17.80;99.90;;;;;;4841589;29;20482;-71
2021/07/31 07:30:51;;;;;;;4.80;3.30;;;17.80;99.90;;;;;;4841253;29;20068;-71
2021/07/31 07:33:17;;;;;;;3.50;2.97;;;17.90;99.90;;;;;;4841992;29;20407;-71
2021/07/31 07:35:43;;;;;;;4.05;3.38;;;17.90;99.90;;;;;;4841801;29;20478;-71
2021/07/31 07:38:08;;;;;;;3.80;3.17;;;18.00;99.90;;;;;;4841547;29;20026;-71
2021/07/31 07:40:34;;;;;;;4.63;3.25;;;18.10;99.90;;;;;;4841449;29;20455;-71
2021/07/31 07:43:01;;;;;;;3.75;2.97;;;18.20;99.90;;;;;;4841510;29;20026;-71
2021/07/31 07:45:27;;;;;;;3.45;2.67;;;18.20;99.90;;;;;;4841411;29;20064;-71
2021/07/31 07:47:53;;;;;;;3.90;2.70;;;18.20;99.90;;;;;;4841427;29;20046;-71
2021/07/31 07:50:18;;;;;;;5.72;3.05;;;18.30;99.90;;;;;;4841141;29;20026;-71
2021/07/31 07:52:44;;;;;;;4.93;3.03;;;18.20;99.90;;;;;;4841366;29;20034;-71
2021/07/31 07:55:10;;;;;;;3.00;2.45;;;18.20;99.90;;;;;;4841507;29;20243;-71
2021/07/31 07:57:40;;;;;;;3.35;2.60;;;18.20;99.90;;;;;;4841606;29;20109;-71
2021/07/31 08:00:07;;;;;;;3.50;2.63;;;18.20;99.90;;;;;;4841526;29;20132;-71
2021/07/31 08:02:33;;;;;;;3.47;2.67;;;18.20;99.90;;;;;;4841420;29;20042;-71
2021/07/31 08:04:59;;;;;;;3.33;2.50;;;18.20;99.90;;;;;;4841427;29;20034;-71
2021/07/31 08:07:25;;;;;;;3.78;2.72;;;18.20;99.90;;;;;;4841250;29;20093;-71
2021/07/31 08:09:51;;;;;;;3.13;2.60;;;18.30;99.90;;;;;;4841521;29;20034;-71
2021/07/31 08:12:17;;;;;;;3.60;2.40;;;18.30;99.90;;;;;;4841064;29;20026;-71
2021/07/31 08:14:43;;;;;;;4.85;2.75;;;18.30;99.90;;;;;;4841156;29;20098;-71
2021/07/31 08:17:08;;;;;;;2.90;2.47;;;18.40;99.90;;;;;;4841427;29;20086;-71
2021/07/31 08:19:34;;;;;;;3.55;2.72;;;18.30;99.90;;;;;;4840859;29;20030;-71
2021/07/31 08:22:00;;;;;;;3.67;2.90;;;18.40;99.90;;;;;;4840975;29;20066;-71
2021/07/31 08:24:25;;;;;;;3.22;2.42;;;18.30;99.90;;;;;;4841134;29;20033;-71
2021/07/31 08:26:51;;;;;;;7.43;2.88;;;18.30;99.90;;;;;;4840948;29;20112;-71
2021/07/31 08:29:17;;;;;;;4.78;3.40;;;18.30;99.90;;;;;;4840924;29;20479;-71
2021/07/31 08:31:43;;;;;;;5.05;3.30;;;18.30;99.90;;;;;;4841172;29;20034;-71
2021/07/31 08:34:10;;;;;;;4.35;3.10;;;18.30;99.90;;;;;;4841067;29;20022;-71
2021/07/31 08:36:36;;;;;;;4.80;2.90;;;18.20;99.90;;;;;;4840690;29;20078;-71
2021/07/31 08:39:03;;;;;;;5.07;3.03;;;18.20;99.90;;;;;;4840880;29;20029;-71
2021/07/31 08:41:29;;;;;;;4.22;3.10;;;18.20;99.90;;;;;;4840662;29;20026;-71
2021/07/31 08:43:55;;;;;;;4.32;2.95;;;18.20;99.90;;;;;;4844740;29;20037;-71
2021/07/31 08:46:21;;;;;;;4.25;3.05;;;18.30;99.90;;;;;;4844479;29;20045;-71
2021/07/31 08:48:48;;;;;;;7.97;3.25;;;18.20;99.90;;;;;;4844280;29;20050;-71
2021/07/31 08:51:16;;;;;;;4.95;3.30;;;18.20;99.90;;;;;;4844423;29;20038;-72
2021/07/31 08:53:43;;;;;;;5.35;3.10;;;18.20;99.90;;;;;;4844631;29;20030;-71
2021/07/31 08:56:09;;;;;;;6.45;3.40;;;18.30;99.90;;;;;;4844474;29;20026;-71
2021/07/31 08:58:39;;;;;;;4.55;3.47;;;18.20;99.90;;;;;;4844111;29;20053;-71
2021/07/31 09:01:05;;;;;;;4.53;3.25;;;18.20;99.90;;;;;;4844129;29;20114;-71
2021/07/31 09:03:30;;;;;;;4.45;3.30;;;18.20;99.90;;;;;;4843957;29;20065;-71
2021/07/31 09:05:56;;;;;;;4.80;3.03;;;18.20;99.90;;;;;;4844017;29;20022;-71
2021/07/31 09:08:22;;;;;;;5.72;3.33;;;18.20;99.90;;;;;;4843996;29;20041;-71
2021/07/31 09:10:47;;;;;;;5.05;3.20;;;18.20;99.90;;;;;;4844013;29;20033;-71
2021/07/31 09:13:18;;;;;;;5.70;3.45;;;18.10;99.90;;;;;;4844012;29;20034;-71
2021/07/31 09:15:46;;;;;;;3.90;2.72;;;18.20;99.90;;;;;;4843978;29;20471;-71
2021/07/31 09:18:29;;;;;;;5.00;3.13;;;18.20;99.90;;;;;;4844240;29;20036;-71
2021/07/31 09:20:56;;;;;;;5.65;2.95;;;18.20;99.90;;;;;;4843889;29;20102;-71
2021/07/31 09:23:22;;;;;;;5.22;3.20;;;18.20;99.90;;;;;;4843734;29;20054;-71
2021/07/31 09:26:01;;;;;;;4.15;3.10;;;18.20;99.90;;;;;;4843697;29;20530;-71
2021/07/31 09:28:27;;;;;;;4.82;3.53;;;18.10;99.90;;;;;;4843735;29;20028;-71
2021/07/31 09:30:53;;;;;;;4.60;3.40;;;18.20;99.90;;;;;;4843813;29;20026;-71
2021/07/31 09:33:19;;;;;;;6.90;3.35;;;18.20;99.90;;;;;;4843580;29;20163;-71
2021/07/31 09:35:47;;;;;;;5.47;3.40;;;18.30;99.90;;;;;;4843831;29;20129;-71
2021/07/31 09:38:13;;;;;;;4.03;2.85;;;18.20;99.90;;;;;;4843609;29;20213;-71
2021/07/31 09:40:39;;;;;;;4.55;3.28;;;18.10;99.90;;;;;;4843332;29;20113;-71
2021/07/31 09:43:18;;;;;;;5.00;3.40;;;18.10;99.90;;;;;;4843438;29;20034;-71
2021/07/31 09:45:44;;;;;;;6.53;4.00;;;18.20;99.90;;;;;;4843332;29;20036;-71
2021/07/31 09:48:10;;;;;;;3.92;3.28;;;18.20;99.90;;;;;;4843456;29;20050;-71
2021/07/31 09:50:46;;;;;;;4.40;2.88;;;18.20;99.90;;;;;;4843100;29;20030;-71
2021/07/31 09:53:21;;;;;;;4.53;3.00;;;18.20;99.90;;;;;;4843152;29;20490;-71
2021/07/31 09:55:48;;;;;;;5.53;3.38;;;18.30;99.90;;;;;;4843128;29;20045;-71
2021/07/31 09:58:17;;;;;;;4.75;3.35;;;18.30;99.90;;;;;;4843529;29;20041;-71
2021/07/31 10:00:48;;;;;;;5.68;3.25;;;18.40;99.90;;;;;;4843354;29;20475;-71
2021/07/31 10:03:15;;;;;;;4.45;3.40;;;18.40;99.90;;;;;;4843473;29;20040;-71
2021/07/31 10:05:43;;;;;;;4.95;3.63;;;18.50;99.90;;;;;;4842897;29;20030;-71
2021/07/31 10:08:11;;;;;;;4.50;3.22;;;18.50;99.90;;;;;;4843114;29;20026;-71
2021/07/31 10:10:38;;;;;;;5.03;3.40;;;18.50;99.90;;;;;;4842659;29;20550;-72
2021/07/31 10:13:04;;;;;;;7.13;3.20;;;18.60;99.90;;;;;;4843025;29;20029;-71
2021/07/31 10:15:31;;;;;;;4.30;3.00;;;18.60;99.90;;;;;;4842717;29;20026;-71
2021/07/31 10:17:58;;;;;;;3.30;3.00;;;18.60;99.90;;;;;;4842959;29;20063;-71
2021/07/31 10:20:30;;;;;;;5.57;3.63;;;18.70;99.90;;;;;;4842841;29;20026;-71
2021/07/31 10:22:56;;;;;;;3.30;3.00;;;18.80;99.90;;;;;;4843038;29;20049;-71
2021/07/31 10:25:23;;;;;;;4.85;3.10;;;18.80;99.90;;;;;;4842542;29;20558;-71
2021/07/31 10:27:51;;;;;;;4.40;3.10;;;18.80;99.90;;;;;;4842908;29;20490;-71
2021/07/31 10:30:34;;;;;;;4.88;3.47;;;18.80;99.90;;;;;;4842678;29;20190;-71
2021/07/31 10:33:00;;;;;;;5.38;3.35;;;18.70;99.90;;;;;;4842825;29;20067;-71
2021/07/31 10:35:33;;;;;;;4.85;3.83;;;18.80;99.90;;;;;;4842282;29;20030;-71
2021/07/31 10:38:01;;;;;;;4.40;3.22;;;18.90;99.90;;;;;;4842744;29;20102;-71
2021/07/31 10:40:29;;;;;;;5.57;3.42;;;18.90;99.90;;;;;;4842290;29;20028;-71
2021/07/31 10:42:55;;;;;;;5.22;3.28;;;18.90;99.90;;;;;;4842790;29;20065;-71
2021/07/31 10:45:22;;;;;;;5.07;3.47;;;19.00;99.90;;;;;;4842522;29;20049;-71
2021/07/31 10:47:51;;;;;;;5.40;3.33;;;19.00;99.90;;;;;;4842308;29;20046;-71
2021/07/31 10:50:23;;;;;;;4.93;3.40;;;19.10;99.90;;;;;;4842618;29;20129;-71
2021/07/31 10:53:03;;;;;;;4.35;3.40;;;18.90;99.90;;;;;;4842185;29;20030;-71
2021/07/31 10:55:38;;;;;;;4.97;3.55;;;18.80;99.90;;;;;;4842359;29;20030;-71
2021/07/31 10:58:11;;;;;;;5.35;3.83;;;18.80;99.90;;;;;;4842365;29;20535;-71
2021/07/31 11:00:45;;;;;;;5.88;3.60;;;18.90;99.90;;;;;;4841905;29;20026;-71
2021/07/31 11:03:28;;;;;;;6.28;3.72;;;18.90;99.90;;;;;;4842158;29;20040;-71
2021/07/31 11:06:05;;;;;;;6.15;3.55;;;18.90;99.90;;;;;;4841064;29;20033;-71
2021/07/31 11:08:55;;;;;;;7.07;3.85;;;19.00;99.90;;;;;;4841822;29;20038;-71
2021/07/31 11:11:25;;;;;;;5.28;3.55;;;19.10;99.90;;;;;;4837925;29;20034;-71
2021/07/31 11:13:53;;;;;;;5.18;3.90;;;19.20;99.90;;;;;;4841943;29;20038;-71
2021/07/31 11:16:23;;;;;;;4.22;3.40;;;19.20;99.90;;;;;;4842066;29;20347;-71
2021/07/31 11:18:54;;;;;;;;;;;19.20;99.90;;;;;;4842526;29;20260;-71
2021/07/31 11:21:33;;;;;;;4.72;3.42;;;19.20;99.90;;;;;;4841757;29;19908;-71
2021/07/31 11:24:10;;;;;;;5.93;3.05;;;19.20;99.90;;;;;;4841804;29;20486;-71
2021/07/31 11:26:39;;;;;;;6.03;3.35;;;19.30;99.90;;;;;;4841658;29;20034;-71
2021/07/31 11:29:18;;;;;;;4.95;3.42;;;19.30;99.90;;;;;;4841705;29;20029;-71
2021/07/31 11:31:56;;;;;;;4.47;3.50;;;19.30;99.90;;;;;;4841443;29;20037;-71
2021/07/31 11:34:21;;;;;;;6.45;3.05;;;19.40;99.90;;;;;;4841818;29;20038;-71
2021/07/31 11:36:56;;;;;;;6.60;3.22;;;19.30;99.90;;;;;;4841496;29;20101;-71
2021/07/31 11:39:22;;;;;;;6.32;3.33;;;19.30;99.90;;;;;;4841512;29;20030;-71
2021/07/31 11:41:47;;;;;;;5.88;3.13;;;19.30;99.90;;;;;;4841680;29;20117;-71
2021/07/31 11:44:25;;;;;;;5.35;3.40;;;19.40;99.90;;;;;;4841455;29;20432;-71
2021/07/31 11:46:52;;;;;;;8.05;3.10;;;19.30;99.90;;;;;;4841269;29;20486;-71
2021/07/31 11:49:29;;;;;;;5.55;3.45;;;19.30;99.90;;;;;;4841130;29;20058;-71
2021/07/31 11:51:58;;;;;;;4.90;3.10;;;19.30;99.90;;;;;;4841436;29;20276;-71
2021/07/31 11:54:25;;;;;;;4.15;3.05;;;19.30;99.90;;;;;;4841542;29;20037;-71
2021/07/31 11:56:52;;;;;;;3.53;3.20;;;19.40;99.90;;;;;;4841339;29;20077;-71
2021/07/31 11:59:32;;;;;;;6.05;3.17;;;19.40;99.90;;;;;;4841310;29;20030;-71
2021/07/31 12:01:58;;;;;;;4.75;3.40;;;19.40;99.90;;;;;;4841351;29;20117;-71
2021/07/31 12:04:46;;;;;;;5.35;3.95;;;19.40;99.90;;;;;;4841093;29;20070;-71
2021/07/31 12:07:19;;;;;;;14.95;3.63;;;19.40;99.90;;;;;;4841357;29;20117;-71
2021/07/31 12:10:13;;;;;;;5.95;3.70;;;19.40;99.90;;;;;;4841076;29;20479;-71
2021/07/31 12:12:43;;;;;;;4.80;3.25;;;19.40;99.90;;;;;;4840982;29;20034;-71
2021/07/31 12:15:28;;;;;;;7.95;3.70;;;19.40;99.90;;;;;;4841195;29;20041;-71
2021/07/31 12:17:54;;;;;;;7.53;3.58;;;19.30;99.90;;;;;;4843615;29;20393;-71
2021/07/31 12:20:36;;;;;;;4.18;3.15;;;19.30;99.90;;;;;;4845147;29;20026;-71
2021/07/31 12:23:05;;;;;;;4.47;3.38;;;19.20;99.90;;;;;;4845031;29;20056;-71
2021/07/31 12:25:31;;;;;;;4.43;3.80;;;19.30;99.90;;;;;;4844951;29;20057;-71
2021/07/31 12:28:00;;;;;;;3.95;2.95;;;19.30;99.90;;;;;;4844962;29;20511;-71
2021/07/31 12:30:36;;;;;;;7.05;4.25;;;19.30;99.90;;;;;;4844534;29;20022;-71
2021/07/31 12:33:13;;;;;;;7.57;3.63;;;19.40;99.90;;;;;;4844912;29;20041;-71
2021/07/31 12:35:39;;;;;;;5.05;3.45;;;19.40;99.90;;;;;;4844870;29;20041;-71
2021/07/31 12:38:26;;;;;;;7.30;3.42;;;19.40;99.90;;;;;;4844737;29;20033;-71
2021/07/31 12:40:54;;;;;;;7.00;3.30;;;19.50;99.90;;;;;;4858602;29;20022;-71
2021/07/31 12:43:21;;;;;;;5.60;3.40;;;19.50;99.90;;;;;;4844609;29;20026;-71
2021/07/31 12:45:47;;;;;;;6.22;3.53;;;19.60;99.90;;;;;;4844537;29;20160;-71
2021/07/31 12:48:14;;;;;;;5.07;3.60;;;19.60;99.90;;;;;;4844211;29;20136;-71
2021/07/31 12:50:42;;;;;;;5.00;3.42;;;19.60;99.90;;;;;;4844196;29;20122;-71
2021/07/31 12:53:08;;;;;;;5.28;3.63;;;19.60;99.90;;;;;;4844226;29;20532;-71
2021/07/31 12:55:34;;;;;;;5.93;4.18;;;19.60;99.90;;;;;;4844440;29;20112;-71
2021/07/31 12:58:00;;;;;;;5.63;3.60;;;19.60;99.90;;;;;;4844150;29;20104;-71
2021/07/31 13:00:27;;;;;;;17.05;3.80;;;19.60;99.90;;;;;;4844330;29;20485;-71
2021/07/31 13:02:54;;;;;;;10.38;3.58;;;19.80;99.90;;;;;;4844134;29;20041;-71
2021/07/31 13:05:20;;;;;;;7.10;4.15;;;19.90;99.90;;;;;;4844454;29;20108;-71
2021/07/31 13:07:46;;;;;;;8.25;3.30;;;19.90;99.90;;;;;;4843833;29;20053;-71
2021/07/31 13:10:12;;;;;;;5.53;3.53;;;19.90;99.90;;;;;;4844319;29;20033;-71
2021/07/31 13:12:37;;;;;;;8.38;3.38;;;19.90;99.90;;;;;;4844146;29;20056;-71
2021/07/31 13:15:04;;;;;;;6.97;3.28;;;19.90;99.90;;;;;;4844299;29;20052;-71